createdAt,value
2022-10-01T00:00:01.437Z,19.67
2022-10-01T00:02:29.445Z,19.77
2022-10-01T00:04:57.690Z,20.20
2022-10-01T00:07:26.056Z,21.05
2022-10-01T00:09:55.299Z,21.58
2022-10-01T00:12:23.247Z,21.15
2022-10-01T00:14:52.112Z,20.20
2022-10-01T00:17:20.082Z,21.73
2022-10-01T00:19:47.992Z,22.90
2022-10-01T00:22:16.014Z,21.90
2022-10-01T00:24:44.252Z,22.83
2022-10-01T00:27:15.646Z,22.67
2022-10-01T00:29:45.337Z,23.02
2022-10-01T00:32:13.324Z,23.50
2022-10-01T00:34:41.233Z,22.75
2022-10-01T00:37:10.357Z,21.90
2022-10-01T00:39:38.486Z,22.55
2022-10-01T00:42:19.471Z,21.88
2022-10-01T00:44:47.617Z,22.15
2022-10-01T00:47:25.899Z,21.33
2022-10-01T00:49:59.529Z,21.60
2022-10-01T00:52:32.177Z,21.45
2022-10-01T00:55:04.310Z,20.58
2022-10-01T00:57:34.478Z,20.93
2022-10-01T01:00:05.972Z,19.77
2022-10-01T01:02:34.133Z,20.02
2022-10-01T01:05:02.697Z,20.88
2022-10-01T01:07:32.497Z,21.58
2022-10-01T01:10:01.444Z,20.52
2022-10-01T01:12:44.347Z,21.27
2022-10-01T01:15:19.275Z,21.40
2022-10-01T01:17:55.681Z,21.50
2022-10-01T01:20:45.837Z,21.17
2022-10-01T01:23:54.563Z,21.40
2022-10-01T01:26:32.255Z,21.48
2022-10-01T01:29:06.769Z,20.48
2022-10-01T01:31:40.090Z,20.40
2022-10-01T01:34:12.918Z,21.95
2022-10-01T01:36:46.095Z,19.52
2022-10-01T01:39:16.972Z,19.98
2022-10-01T01:41:50.205Z,20.25
2022-10-01T01:44:27.175Z,20.67
2022-10-01T01:46:57.474Z,22.27
2022-10-01T01:49:26.601Z,21.02
2022-10-01T01:52:01.939Z,20.58
2022-10-01T01:54:30.511Z,20.38
2022-10-01T01:56:59.545Z,21.48
2022-10-01T01:59:29.265Z,21.17
2022-10-01T02:01:58.933Z,21.38
2022-10-01T02:04:31.518Z,21.83
2022-10-01T02:07:16.594Z,21.58
2022-10-01T02:09:54.090Z,21.83
2022-10-01T02:12:33.430Z,22.42
2022-10-01T02:15:10.259Z,21.67
2022-10-01T02:17:50.605Z,21.52
2022-10-01T02:20:23.841Z,22.45
2022-10-01T02:22:57.020Z,22.73
2022-10-01T02:25:33.008Z,22.83
2022-10-01T02:28:07.589Z,22.67
2022-10-01T02:30:42.480Z,24.00
2022-10-01T02:33:14.968Z,23.95
2022-10-01T02:35:46.974Z,21.92
2022-10-01T02:38:16.770Z,24.10
2022-10-01T02:40:47.515Z,23.50
2022-10-01T02:43:19.718Z,22.67
2022-10-01T02:45:53.112Z,23.60
2022-10-01T02:48:23.715Z,22.35
2022-10-01T02:50:54.438Z,23.92
2022-10-01T02:53:25.925Z,23.27
2022-10-01T02:55:54.952Z,22.45
2022-10-01T02:58:22.190Z,23.08
2022-10-01T03:00:53.040Z,23.15
2022-10-01T03:03:21.212Z,23.60
2022-10-01T03:05:51.460Z,22.42
2022-10-01T03:08:19.958Z,24.20
2022-10-01T03:10:47.919Z,21.80
2022-10-01T03:13:17.094Z,22.67
2022-10-01T03:15:50.124Z,21.88
2022-10-01T03:18:19.598Z,21.98
2022-10-01T03:20:49.094Z,21.90
2022-10-01T03:23:17.028Z,21.85
2022-10-01T03:25:44.956Z,22.23
2022-10-01T03:28:13.443Z,20.35
2022-10-01T03:30:41.431Z,21.27
2022-10-01T03:33:10.382Z,20.45
2022-10-01T03:35:41.700Z,20.90
2022-10-01T03:38:09.619Z,20.55
2022-10-01T03:40:39.023Z,21.08
2022-10-01T03:43:07.282Z,20.10
2022-10-01T03:45:35.271Z,21.08
2022-10-01T03:48:05.530Z,19.83
2022-10-01T03:50:33.482Z,18.80
2022-10-01T03:53:02.799Z,18.98
2022-10-01T03:55:31.351Z,19.38
2022-10-01T03:57:59.517Z,18.85
2022-10-01T04:00:27.812Z,18.63
2022-10-01T04:02:55.792Z,18.02
2022-10-01T04:05:25.574Z,17.63
2022-10-01T04:07:53.522Z,17.60
2022-10-01T04:10:22.786Z,16.33
2022-10-01T04:12:50.753Z,17.33
2022-10-01T04:15:18.713Z,16.67
2022-10-01T04:17:46.611Z,16.88
2022-10-01T04:20:14.698Z,17.40
2022-10-01T04:22:44.720Z,16.27
2022-10-01T04:25:13.924Z,16.63
2022-10-01T04:27:56.987Z,16.50
2022-10-01T04:30:25.216Z,17.42
2022-10-01T04:32:53.148Z,16.45
2022-10-01T04:35:21.771Z,15.27
2022-10-01T04:37:56.014Z,15.70
2022-10-01T04:40:23.926Z,16.30
2022-10-01T04:42:54.822Z,15.90
2022-10-01T04:45:22.717Z,14.90
2022-10-01T04:47:52.228Z,14.88
2022-10-01T04:50:20.856Z,15.10
2022-10-01T04:52:51.214Z,14.75
2022-10-01T04:55:20.642Z,15.50
2022-10-01T04:57:48.837Z,14.75
2022-10-01T05:00:21.647Z,13.95
2022-10-01T05:02:51.196Z,14.93
2022-10-01T05:05:21.134Z,16.50
2022-10-01T05:07:50.702Z,14.05
2022-10-01T05:10:20.659Z,15.50
2022-10-01T05:12:49.568Z,14.20
2022-10-01T05:15:20.592Z,14.00
2022-10-01T05:17:48.953Z,16.65
2022-10-01T05:20:19.162Z,15.38
2022-10-01T05:22:48.926Z,14.45
2022-10-01T05:25:17.409Z,14.88
2022-10-01T05:27:45.458Z,14.10
2022-10-01T05:30:18.609Z,13.90
2022-10-01T05:32:56.221Z,14.13
2022-10-01T05:35:24.589Z,14.20
2022-10-01T05:37:56.853Z,13.07
2022-10-01T05:40:28.398Z,12.43
2022-10-01T05:42:56.843Z,13.30
2022-10-01T05:45:25.017Z,12.02
2022-10-01T05:48:02.146Z,12.40
2022-10-01T05:50:32.124Z,11.95
2022-10-01T05:53:00.741Z,12.60
2022-10-01T05:55:32.365Z,11.93
2022-10-01T05:58:02.049Z,12.60
2022-10-01T06:00:31.572Z,11.88
2022-10-01T06:03:02.901Z,11.25
2022-10-01T06:05:32.611Z,11.68
2022-10-01T06:08:00.908Z,11.32
2022-10-01T06:10:30.253Z,12.75
2022-10-01T06:13:01.088Z,13.43
2022-10-01T06:15:29.946Z,12.48
2022-10-01T06:17:58.190Z,11.50
2022-10-01T06:20:27.719Z,11.48
2022-10-01T06:22:58.013Z,10.50
2022-10-01T06:25:30.767Z,10.60
2022-10-01T06:28:00.616Z,9.68
2022-10-01T06:30:29.839Z,10.68
2022-10-01T06:33:03.103Z,11.05
2022-10-01T06:35:33.646Z,10.73
2022-10-01T06:38:02.632Z,10.02
2022-10-01T06:40:31.316Z,10.15
2022-10-01T06:42:59.986Z,10.18
2022-10-01T06:45:28.522Z,10.30
2022-10-01T06:48:02.595Z,10.60
2022-10-01T06:50:33.357Z,10.77
2022-10-01T06:53:02.828Z,10.40
2022-10-01T06:55:33.439Z,10.80
2022-10-01T06:58:03.573Z,9.85
2022-10-01T07:00:33.999Z,10.07
2022-10-01T07:05:38.556Z,10.15
2022-10-01T07:08:09.659Z,10.50
2022-10-01T07:10:38.357Z,10.93
2022-10-01T07:13:10.623Z,13.07
2022-10-01T07:15:39.131Z,11.35
2022-10-01T07:18:09.457Z,10.38
2022-10-01T07:20:40.682Z,11.93
2022-10-01T07:23:12.006Z,11.93
2022-10-01T07:25:43.311Z,11.63
2022-10-01T07:28:16.614Z,11.98
2022-10-01T07:30:49.762Z,11.88
2022-10-01T07:33:19.958Z,11.05
2022-10-01T07:35:49.400Z,13.10
2022-10-01T07:38:17.495Z,10.50
2022-10-01T07:40:54.250Z,10.60
2022-10-01T07:43:22.661Z,10.73
2022-10-01T07:45:52.549Z,10.32
2022-10-01T07:48:22.866Z,9.88
2022-10-01T07:50:52.275Z,11.25
2022-10-01T07:53:20.873Z,10.30
2022-10-01T07:55:48.981Z,11.75
2022-10-01T07:58:18.699Z,10.27
2022-10-01T08:00:46.691Z,12.13
2022-10-01T08:03:14.624Z,10.77
2022-10-01T08:05:43.711Z,9.88
2022-10-01T08:08:13.163Z,12.05
2022-10-01T08:10:42.846Z,11.15
2022-10-01T08:13:15.202Z,10.32
2022-10-01T08:15:44.162Z,9.45
2022-10-01T08:18:12.928Z,10.48
2022-10-01T08:20:41.987Z,9.52
2022-10-01T08:23:14.211Z,10.07
2022-10-01T08:25:43.211Z,8.52
2022-10-01T08:28:12.818Z,10.70
2022-10-01T08:30:42.650Z,8.82
2022-10-01T08:33:12.935Z,10.88
2022-10-01T08:35:41.789Z,9.38
2022-10-01T08:38:09.825Z,9.38
2022-10-01T08:40:44.966Z,9.50
2022-10-01T08:43:23.037Z,11.40
2022-10-01T08:45:53.962Z,10.00
2022-10-01T08:48:32.889Z,9.63
2022-10-01T08:51:05.345Z,8.55
2022-10-01T08:53:38.309Z,9.73
2022-10-01T08:56:11.726Z,8.98
2022-10-01T08:58:44.927Z,9.65
2022-10-01T09:01:13.277Z,8.90
2022-10-01T09:03:41.647Z,8.40
2022-10-01T09:06:20.263Z,7.75
2022-10-01T09:09:18.417Z,12.30
2022-10-01T09:12:03.207Z,9.45
2022-10-01T09:14:45.316Z,7.47
2022-10-01T09:17:24.463Z,7.68
2022-10-01T09:20:08.192Z,7.60
2022-10-01T09:22:40.049Z,8.00
2022-10-01T09:25:14.835Z,10.77
2022-10-01T09:27:44.592Z,7.30
2022-10-01T09:30:16.435Z,7.50
2022-10-01T09:32:47.806Z,7.30
2022-10-01T09:35:31.384Z,6.50
2022-10-01T09:38:04.402Z,6.13
2022-10-01T09:40:37.066Z,5.32
2022-10-01T09:43:08.351Z,5.43
2022-10-01T09:45:38.098Z,5.90
2022-10-01T09:48:18.634Z,4.72
2022-10-01T09:50:55.305Z,5.28
2022-10-01T09:53:29.963Z,4.85
2022-10-01T09:56:06.695Z,3.70
2022-10-01T09:58:39.719Z,4.85
2022-10-01T10:03:42.421Z,4.30
2022-10-01T10:06:10.636Z,3.75
2022-10-01T10:08:40.584Z,4.63
2022-10-01T10:11:11.186Z,4.68
2022-10-01T10:13:42.149Z,5.10
2022-10-01T10:16:16.625Z,4.88
2022-10-01T10:18:52.117Z,5.47
2022-10-01T10:21:25.323Z,4.90
2022-10-01T10:23:55.066Z,6.85
2022-10-01T10:26:31.436Z,6.07
2022-10-01T10:29:02.817Z,5.63
2022-10-01T10:31:40.162Z,5.75
2022-10-01T10:34:14.882Z,7.13
2022-10-01T10:36:44.570Z,7.38
2022-10-01T10:39:21.218Z,7.07
2022-10-01T10:41:50.990Z,7.70
2022-10-01T10:44:24.300Z,8.82
2022-10-01T10:46:54.780Z,7.53
2022-10-01T10:49:27.994Z,8.60
2022-10-01T10:51:57.516Z,8.88
2022-10-01T10:54:30.443Z,9.80
2022-10-01T10:59:34.459Z,8.77
2022-10-01T11:02:04.958Z,9.35
2022-10-01T11:04:42.858Z,9.52
2022-10-01T11:07:13.405Z,10.00
2022-10-01T11:10:04.500Z,10.55
2022-10-01T11:12:47.300Z,10.70
2022-10-01T11:15:33.118Z,9.90
2022-10-01T11:18:24.744Z,10.25
2022-10-01T11:21:05.582Z,11.15
2022-10-01T11:26:25.320Z,8.93
2022-10-01T11:29:08.968Z,8.85
2022-10-01T11:31:50.817Z,9.55
2022-10-01T11:34:40.014Z,11.70
2022-10-01T11:37:18.387Z,9.15
2022-10-01T11:39:48.612Z,8.07
2022-10-01T11:42:22.792Z,7.78
2022-10-01T11:45:00.561Z,7.55
2022-10-01T11:47:35.192Z,7.00
2022-10-01T11:50:14.464Z,8.60
2022-10-01T11:52:47.537Z,7.30
2022-10-01T11:55:38.762Z,8.52
2022-10-01T11:58:31.439Z,8.63
2022-10-01T12:01:05.106Z,8.57
2022-10-01T12:03:44.911Z,9.02
2022-10-01T12:06:15.001Z,8.52
2022-10-01T12:08:49.326Z,7.47
2022-10-01T12:11:23.306Z,7.97
2022-10-01T12:13:59.923Z,7.78
2022-10-01T12:16:40.173Z,9.52
2022-10-01T12:19:17.334Z,8.30
2022-10-01T12:21:51.883Z,8.60
2022-10-01T12:24:27.304Z,8.57
2022-10-01T12:27:06.922Z,8.63
2022-10-01T12:29:45.184Z,6.95
2022-10-01T12:32:21.862Z,6.55
2022-10-01T12:35:00.596Z,7.15
2022-10-01T12:37:44.696Z,7.47
2022-10-01T12:40:30.713Z,6.45
2022-10-01T12:43:36.782Z,7.05
2022-10-01T12:48:44.855Z,7.10
2022-10-01T12:51:34.373Z,7.15
2022-10-01T12:54:30.988Z,8.82
2022-10-01T12:57:06.787Z,9.13
2022-10-01T12:59:50.336Z,9.32
2022-10-01T13:02:44.144Z,10.05
2022-10-01T13:05:24.887Z,9.27
2022-10-01T13:08:09.954Z,10.10
2022-10-01T13:10:56.993Z,9.75
2022-10-01T13:13:27.306Z,10.38
2022-10-01T13:16:03.481Z,9.07
2022-10-01T13:18:40.765Z,8.70
2022-10-01T13:21:15.632Z,9.65
2022-10-01T13:23:50.954Z,9.10
2022-10-01T13:26:27.499Z,8.55
2022-10-01T13:29:16.699Z,9.88
2022-10-01T13:31:56.799Z,10.25
2022-10-01T13:34:37.564Z,8.60
2022-10-01T13:37:17.225Z,8.43
2022-10-01T13:39:47.727Z,9.73
2022-10-01T13:42:24.186Z,10.68
2022-10-01T13:44:57.832Z,7.95
2022-10-01T13:47:26.664Z,9.00
2022-10-01T13:49:57.582Z,10.65
2022-10-01T13:52:25.842Z,12.13
2022-10-01T13:54:56.914Z,10.73
2022-10-01T13:57:36.960Z,8.90
2022-10-01T14:00:22.641Z,12.20
2022-10-01T14:03:03.932Z,7.90
2022-10-01T14:05:36.806Z,9.80
2022-10-01T14:11:00.439Z,8.05
2022-10-01T14:13:48.538Z,9.30
2022-10-01T14:16:20.746Z,8.93
2022-10-01T14:18:50.732Z,9.75
2022-10-01T14:21:45.077Z,6.75
2022-10-01T14:24:23.874Z,8.50
2022-10-01T14:26:58.154Z,9.77
2022-10-01T14:29:41.476Z,10.35
2022-10-01T14:32:27.250Z,10.07
2022-10-01T14:35:06.776Z,12.50
2022-10-01T14:37:39.313Z,15.10
2022-10-01T14:40:17.918Z,13.45
2022-10-01T14:42:59.990Z,9.55
2022-10-01T14:45:28.825Z,10.70
2022-10-01T14:48:03.372Z,9.70
2022-10-01T14:50:34.867Z,8.50
2022-10-01T14:53:02.970Z,9.63
2022-10-01T14:55:31.648Z,11.38
2022-10-01T14:58:01.141Z,9.52
2022-10-01T15:00:32.225Z,11.85
2022-10-01T15:03:10.148Z,13.18
2022-10-01T15:05:38.369Z,11.25
2022-10-01T15:08:13.629Z,9.40
2022-10-01T15:10:48.995Z,10.50
2022-10-01T15:13:25.289Z,9.57
2022-10-01T15:15:55.296Z,11.15
2022-10-01T15:18:23.957Z,8.93
2022-10-01T15:20:57.740Z,5.43
2022-10-01T15:23:28.936Z,9.70
2022-10-01T15:25:58.914Z,8.93
2022-10-01T15:28:31.929Z,6.85
2022-10-01T15:31:03.296Z,9.68
2022-10-01T15:33:34.060Z,7.57
2022-10-01T15:36:05.047Z,7.43
2022-10-01T15:38:34.261Z,9.05
2022-10-01T15:41:26.754Z,8.27
2022-10-01T15:43:53.723Z,7.13
2022-10-01T15:46:31.323Z,6.63
2022-10-01T15:49:13.758Z,7.07
2022-10-01T15:52:09.063Z,7.27
2022-10-01T15:54:39.785Z,5.32
2022-10-01T15:57:08.899Z,5.60
2022-10-01T15:59:40.995Z,5.60
2022-10-01T16:02:12.660Z,7.77
2022-10-01T16:04:41.183Z,6.00
2022-10-01T16:07:20.417Z,6.90
2022-10-01T16:09:58.135Z,6.13
2022-10-01T16:12:29.204Z,5.68
2022-10-01T16:15:02.840Z,6.32
2022-10-01T16:17:35.952Z,6.07
2022-10-01T16:20:35.841Z,5.88
2022-10-01T16:23:40.449Z,5.35
2022-10-01T16:26:36.100Z,6.25
2022-10-01T16:29:20.313Z,6.93
2022-10-01T16:31:48.627Z,8.38
2022-10-01T16:34:19.223Z,8.50
2022-10-01T16:36:48.108Z,8.32
2022-10-01T16:39:16.142Z,8.52
2022-10-01T16:42:01.401Z,8.00
2022-10-01T16:44:40.607Z,6.73
2022-10-01T16:47:10.701Z,7.37
2022-10-01T16:49:38.743Z,7.30
2022-10-01T16:52:06.738Z,8.02
2022-10-01T16:54:35.166Z,8.13
2022-10-01T16:57:04.698Z,7.93
2022-10-01T16:59:33.738Z,6.70
2022-10-01T17:02:04.370Z,8.43
2022-10-01T17:04:34.052Z,9.13
2022-10-01T17:07:02.556Z,11.50
2022-10-01T17:09:31.164Z,10.02
2022-10-01T17:12:01.969Z,9.98
2022-10-01T17:14:31.382Z,10.90
2022-10-01T17:16:59.379Z,10.63
2022-10-01T17:19:28.041Z,10.88
2022-10-01T17:21:56.078Z,10.05
2022-10-01T17:24:24.063Z,10.60
2022-10-01T17:26:51.994Z,9.30
2022-10-01T17:29:19.913Z,10.10
2022-10-01T17:31:53.295Z,9.48
2022-10-01T17:34:22.072Z,10.27
2022-10-01T17:36:50.205Z,12.25
2022-10-01T17:39:18.447Z,9.95
2022-10-01T17:41:46.661Z,10.57
2022-10-01T17:44:14.781Z,9.07
2022-10-01T17:46:42.985Z,11.93
2022-10-01T17:49:13.166Z,12.40
2022-10-01T17:51:41.121Z,9.75
2022-10-01T17:54:09.055Z,9.50
2022-10-01T17:56:38.809Z,8.90
2022-10-01T17:59:06.938Z,8.23
2022-10-01T18:01:35.480Z,8.88
2022-10-01T18:04:05.567Z,8.77
2022-10-01T18:06:35.092Z,9.57
2022-10-01T18:09:03.310Z,9.65
2022-10-01T18:11:31.512Z,9.55
2022-10-01T18:13:59.692Z,9.18
2022-10-01T18:16:28.599Z,8.82
2022-10-01T18:19:52.400Z,7.43
2022-10-01T18:21:47.270Z,8.18
2022-10-01T18:24:16.646Z,6.80
2022-10-01T18:26:45.566Z,7.40
2022-10-01T18:29:19.368Z,6.13
2022-10-01T18:31:51.560Z,5.50
2022-10-01T18:34:25.909Z,4.97
2022-10-01T18:37:00.615Z,5.43
2022-10-01T18:39:36.029Z,4.75
2022-10-01T18:42:11.965Z,5.63
2022-10-01T18:44:40.127Z,7.47
2022-10-01T18:47:19.253Z,5.25
2022-10-01T18:50:11.320Z,4.47
2022-10-01T18:52:49.961Z,4.30
2022-10-01T18:55:40.322Z,5.68
2022-10-01T18:58:26.559Z,4.68
2022-10-01T19:01:07.388Z,5.53
2022-10-01T19:04:00.121Z,7.70
2022-10-01T19:06:44.973Z,6.80
2022-10-01T19:09:23.504Z,7.47
2022-10-01T19:12:03.951Z,6.95
2022-10-01T19:15:00.433Z,7.72
2022-10-01T19:17:50.765Z,10.60
2022-10-01T19:20:45.101Z,9.45
2022-10-01T19:23:42.784Z,9.70
2022-10-01T19:26:17.573Z,9.20
2022-10-01T19:28:59.574Z,8.48
2022-10-01T19:31:36.198Z,9.32
2022-10-01T19:34:10.520Z,10.48
2022-10-01T19:36:42.396Z,9.60
2022-10-01T19:39:20.556Z,9.25
2022-10-01T19:41:54.520Z,7.65
2022-10-01T19:44:28.988Z,7.82
2022-10-01T19:47:06.661Z,7.75
2022-10-01T19:49:38.164Z,8.25
2022-10-01T19:52:13.154Z,7.25
2022-10-01T19:54:46.068Z,8.10
2022-10-01T19:59:57.363Z,7.32
2022-10-01T20:02:34.160Z,6.35
2022-10-01T20:05:07.683Z,6.93
2022-10-01T20:07:45.914Z,8.68
2022-10-01T20:10:20.953Z,10.13
2022-10-01T20:13:02.284Z,6.32
2022-10-01T20:15:40.496Z,8.40
2022-10-01T20:18:20.939Z,8.00
2022-10-01T20:21:09.963Z,7.65
2022-10-01T20:23:46.704Z,7.03
2022-10-01T20:26:26.640Z,7.32
2022-10-01T20:29:11.668Z,6.47
2022-10-01T20:31:47.243Z,5.80
2022-10-01T20:34:27.470Z,5.07
2022-10-01T20:37:08.241Z,5.80
2022-10-01T20:39:42.077Z,5.20
2022-10-01T20:42:19.054Z,5.97
2022-10-01T20:44:48.940Z,6.80
2022-10-01T20:47:22.256Z,6.57
2022-10-01T20:49:56.802Z,6.32
2022-10-01T20:52:32.456Z,5.38
2022-10-01T20:55:03.638Z,5.53
2022-10-01T20:57:35.525Z,5.22
2022-10-01T21:00:09.298Z,5.95
2022-10-01T21:02:43.442Z,5.93
2022-10-01T21:05:17.455Z,4.53
2022-10-01T21:07:53.149Z,6.93
2022-10-01T21:10:29.302Z,7.15
2022-10-01T21:13:06.495Z,9.07
2022-10-01T21:15:49.189Z,8.82
2022-10-01T21:18:28.980Z,8.93
2022-10-01T21:21:07.257Z,8.05
2022-10-01T21:23:47.115Z,8.20
2022-10-01T21:26:25.386Z,6.60
2022-10-01T21:29:15.688Z,5.57
2022-10-01T21:31:55.279Z,6.78
2022-10-01T21:34:30.961Z,10.20
2022-10-01T21:37:06.411Z,6.88
2022-10-01T21:39:40.264Z,5.72
2022-10-01T21:42:16.793Z,5.72
2022-10-01T21:45:09.979Z,6.80
2022-10-01T21:47:54.995Z,7.47
2022-10-01T21:50:31.073Z,7.00
2022-10-01T21:53:16.991Z,5.82
2022-10-01T21:56:06.480Z,5.82
2022-10-01T21:58:47.476Z,6.45
2022-10-01T22:01:24.660Z,5.88
2022-10-01T22:04:02.200Z,6.70
2022-10-01T22:06:37.378Z,5.97
2022-10-01T22:09:14.258Z,6.93
2022-10-01T22:11:49.330Z,8.30
2022-10-01T22:14:19.001Z,7.28
2022-10-01T22:16:53.168Z,6.88
2022-10-01T22:19:28.452Z,7.40
2022-10-01T22:22:03.745Z,6.38
2022-10-01T22:24:37.489Z,7.28
2022-10-01T22:27:10.612Z,7.55
2022-10-01T22:29:43.630Z,8.32
2022-10-01T22:32:14.483Z,6.75
2022-10-01T22:34:47.733Z,7.72
2022-10-01T22:37:22.469Z,6.45
2022-10-01T22:39:56.368Z,6.40
2022-10-01T22:42:30.489Z,6.60
2022-10-01T22:45:02.591Z,5.80
2022-10-01T22:47:59.536Z,5.13
2022-10-01T22:50:43.134Z,6.70
2022-10-01T22:53:24.018Z,6.95
2022-10-01T22:55:55.848Z,5.90
2022-10-01T22:58:42.951Z,6.88
2022-10-01T23:01:19.480Z,5.38
2022-10-01T23:03:57.278Z,5.03
2022-10-01T23:06:36.968Z,5.70
2022-10-01T23:09:12.498Z,5.15
2022-10-01T23:11:56.702Z,5.63
2022-10-01T23:14:44.486Z,6.40
2022-10-01T23:17:19.795Z,5.85
2022-10-01T23:19:57.039Z,5.72
2022-10-01T23:22:40.326Z,5.20
2022-10-01T23:25:19.172Z,5.57
2022-10-01T23:28:01.242Z,5.45
2022-10-01T23:30:37.915Z,4.90
2022-10-01T23:33:29.375Z,5.13
2022-10-01T23:36:24.120Z,5.30
2022-10-01T23:39:18.194Z,5.20
2022-10-01T23:41:52.036Z,5.30
2022-10-01T23:44:27.001Z,5.80
2022-10-01T23:46:55.961Z,5.60
2022-10-01T23:49:28.885Z,5.90
2022-10-01T23:52:03.763Z,5.38
2022-10-01T23:54:39.498Z,5.07
2022-10-01T23:57:14.621Z,5.65
2022-10-01T23:59:48.195Z,5.05
